AirNav   Air Wisconsin Up To $57,000 Bonus
 
 1541 users online  

7V7 Red Cloud Municipal Airport
Red Cloud, Nebraska, USA

GOING TO RED CLOUD?


FAA INFORMATION EFFECTIVE 20 MAY 2021

Location

FAA Identifier: 7V7
Lat/Long: 40-04-55.8000N 098-32-28.9000W
40-04.930000N 098-32.481667W
40.0821667,-98.5413611
(estimated)
Elevation: 1744.4 ft. / 531.7 m (surveyed)
Variation: 05E (2010)
From city: 1 mile W of RED CLOUD, NE
Time zone: UTC -5 (UTC -6 during Standard Time)
Zip code: 68970

Airport Operations

Airport use: Open to the public
Activation date: 10/1968
Control tower: no
ARTCC: MINNEAPOLIS CENTER
FSS: COLUMBUS FLIGHT SERVICE STATION
NOTAMs facility: OLU (NOTAM-D service available)
Attendance: UNATNDD
Wind indicator: lighted
Segmented circle: yes
Lights: DUSK-2300. MIRL RY 16/34 PRESET ON LOW INTST AND REIL RY 16/34 ON DUSK-2300; TO INCR INTST AND ACTVT PAPI RY 16/34 - CTAF; AFTER 2300 ACTVT MIRL RY 16/34, PAPI RY 16/34 AND REIL RY 16/34 - CTAF. FROM SR TO SS ACTVT PAPI RY 16/34 - CTAF.
Beacon: white-green (lighted land airport)
Operates sunset to sunrise.

Airport Communications

CTAF: 122.9
  • APCH/DEP SVC PRVDD BY MINNEAPOLIS ARTCC ON FREQS. 119.4/278.8 (HASTINGS RCAG).

Nearby radio navigation aids

VOR radial/distance  VOR name  Freq  Var
TKOr312/21.0MANKATO VORTAC109.8010E
HSIr182/31.8HASTINGS VOR/DME108.8007E

Airport Services

Fuel available: 100LL
100LL:FOR FUEL CALL (402) 746-3297 OR 746-2500 OR 746-3818.
Parking: hangars and tiedowns
Airframe service: NONE
Powerplant service: NONE
Bottled oxygen: NONE
Bulk oxygen: NONE

Runway Information

Runway 16/34

Dimensions: 3702 x 60 ft. / 1128 x 18 m
Surface: concrete, in excellent condition
Weight bearing capacity: 
Single wheel: 12.5
Runway edge lights: medium intensity
RUNWAY 16  RUNWAY 34
Latitude: 40-05.221280N40-04.638568N
Longitude: 098-32.598305W098-32.364618W
Elevation: 1744.4 ft.1717.4 ft.
Traffic pattern: leftleft
Runway heading: 158 magnetic, 163 true338 magnetic, 343 true
Markings: nonprecision, in good conditionnonprecision, in good condition
Visual slope indicator: 2-light PAPI on left (3.25 degrees glide path)2-light PAPI on left (3.00 degrees glide path)
Runway end identifier lights: yesyes
Touchdown point: yes, no lightsyes, no lights
Obstructions: 20 ft. road, 610 ft. from runway, 20:1 slope to clear34 ft. tree, 1102 ft. from runway, 204 ft. right of centerline, 26:1 slope to clear
RWY 34 END FENCE 4 FT HIGH 190 FT FM RWY END 215 FT L.

Airport Ownership and Management from official FAA records

Ownership: Publicly-owned
Owner: RED CLOUD AIRPORT AUTHORITY
241 WEST 4TH AVENUE
RED CLOUD, NE 68970-2357
Phone 402-746-2500
DAYRE WILLIAMS CHAIRMAN.
Manager: DAYRE WILLIAMS
241 WEST 4TH AVENUE
RED CLOUD, NE 68970-2357
Phone 402-746-3297

Airport Operational Statistics

Aircraft based on the field: 10
Single engine airplanes: 10
    
Aircraft operations: avg 99/week *
87% local general aviation
13% transient general aviation
<1% military
* for 12-month period ending 29 May 2019

Additional Remarks

FOR CD CTC MINNEAPOLIS ARTCC AT 651-463-5588.
COURTESY CAR AVBL.

Instrument Procedures

NOTE: All procedures below are presented as PDF files. If you need a reader for these files, you should download the free Adobe Reader.

NOT FOR NAVIGATION. Please procure official charts for flight.
FAA instrument procedures published for use from 20 May 2021 at 0901Z to 17 June 2021 at 0900z.

 
IAPs - Instrument Approach Procedures
RNAV (GPS) RWY 16 **CHANGED**   download (215KB)
RNAV (GPS) RWY 34 **CHANGED**   download (220KB)
NOTE: Special Take-Off Minimums/Departure Procedures apply   download (147KB)

Other nearby airports with instrument procedures:

12K - Superior Municipal Airport (22 nm E)
K82 - Smith Center Municipal Airport (22 nm SW)
KHSI - Hastings Municipal Airport (32 nm N)
0V3 - Pioneer Village Field Airport (32 nm NW)
4D9 - Alma Municipal Airport (37 nm W)
 
Loc | Ops | Rwys | IFR | FBO | Links
Com | Nav | Svcs | Stats | Notes
Area around 7V7 (Red Cloud Municipal Airport)
 
Road maps at: MapQuest Bing Google
 
Aerial photo
WARNING: Photo may not be current or correct
Aerial photo of 7V7 (Red Cloud Municipal Airport)
Taken in May 2008

Do you have a better or more recent aerial photo of Red Cloud Municipal Airport that you would like to share? If so, please send us your photo.

 
Sectional chart

 
Airport distance calculator
Flying to Red Cloud Municipal Airport? Find the distance to fly.

From to 7V7

Sunrise and sunset
Times for 16-Jun-2021
 Local
(UTC-5)
 Zulu
(UTC)
Morning civil twilight05:3310:33
Sunrise06:0511:05
Sunset21:0402:04
Evening civil twilight21:3702:37

Current date and time
Zulu (UTC)  16-Jun-2021 17:03:37
Local (UTC-5)  16-Jun-2021 12:03:37
 
METAR
KK82 
22nm SW 
161655Z AUTO 21014G19KT 10SM SCT095 SCT120 35/18 A3001 RMK AO2
KHSI 
31nm N 
161653Z AUTO 21011G19KT 10SM CLR 34/18 A3000 RMK AO2 SLP135 T03390178
KHDE 
42nm NW 
161655Z AUTO 19017G20KT 10SM CLR 35/17 A3000 RMK AO2 T03450166
KEAR 
43nm NW 
161656Z AUTO 21017KT 10SM CLR 34/18 A2999 RMK AO2 SLP132 T03390183
KHJH 
44nm E 
161655Z AUTO 22007KT 10SM CLR 35/17 A2999 RMK AO2 T03520173
TAF
KEAR 
43nm NW 
161138Z 1612/1712 18006KT P6SM SKC FM161600 19013KT P6SM SKC FM170100 17009KT P6SM FEW250 FM170800 19008KT P6SM FEW250 WS007/23040KT FM171000 21006KT P6SM FEW250 FM171100 24006KT P6SM FEW250
NOTAMs
Click for the latest NOTAMs
NOTAMs are issued by the DoD/FAA and will open in a separate window not controlled by AirNav.

 

 
 

FBO, Fuel Providers, and Aircraft Ground Support

  
 Business Name 
 
 Contact 
 
 Services / Description 
 
Fuel Prices
 
Comments
  
Red Cloud Municipal Airport 402-746-3297
no information available

If you are affiliated with Red Cloud Municipal Airport and would like to show here your services, contact info, web link, logo, and more, click here
100LL
PS $4.59 
 Updated 27-May-2021
 
   1 read write
PS=Pump service
Update Fuel Prices
 

Would you like to see your business listed on this page?

 If your business provides an interesting product or service to pilots, flight crews, aircraft, or users of the Red Cloud Municipal Airport, you should consider listing it here.  To start the listing process, click on the button below
 
Add a business
 

Other Pages about Red Cloud Municipal Airport

Update a link
 
Copyright © AirNav, LLC. All rights reserved. Privacy Policy  Contact